sensor_id;sensor_type;location;lat;lon;timestamp;pressure;altitude;pressure_sealevel;temperature;humidity
51245;BME280;37840;47.562;18.738;2023-10-19T00:01:10;99197.44;;;9.52;63.18
51245;BME280;37840;47.562;18.738;2023-10-19T00:03:37;99205.97;;;9.56;63.58
51245;BME280;37840;47.562;18.738;2023-10-19T00:06:03;99203.47;;;9.54;63.93
51245;BME280;37840;47.562;18.738;2023-10-19T00:08:31;99198.41;;;9.63;64.14
51245;BME280;37840;47.562;18.738;2023-10-19T00:11:10;99198.63;;;9.59;64.08
51245;BME280;37840;47.562;18.738;2023-10-19T00:13:46;99192.87;;;9.66;63.84
51245;BME280;37840;47.562;18.738;2023-10-19T00:16:16;99180.81;;;9.73;63.36
51245;BME280;37840;47.562;18.738;2023-10-19T00:18:49;99177.66;;;9.68;64.07
51245;BME280;37840;47.562;18.738;2023-10-19T00:21:16;99179.97;;;9.72;64.14
51245;BME280;37840;47.562;18.738;2023-10-19T00:23:47;99181.78;;;9.72;63.73
51245;BME280;37840;47.562;18.738;2023-10-19T00:26:13;99183.34;;;9.74;62.45
51245;BME280;37840;47.562;18.738;2023-10-19T00:28:46;99177.22;;;9.74;62.53
51245;BME280;37840;47.562;18.738;2023-10-19T00:31:15;99177.09;;;9.75;62.09
51245;BME280;37840;47.562;18.738;2023-10-19T00:33:41;99177.31;;;9.84;61.20
51245;BME280;37840;47.562;18.738;2023-10-19T00:36:10;99169.81;;;9.77;61.64
51245;BME280;37840;47.562;18.738;2023-10-19T00:38:40;99168.41;;;9.73;61.61
51245;BME280;37840;47.562;18.738;2023-10-19T00:41:23;99175.28;;;9.76;61.70
51245;BME280;37840;47.562;18.738;2023-10-19T00:43:56;99170.53;;;9.68;61.86
51245;BME280;37840;47.562;18.738;2023-10-19T00:46:29;99163.66;;;9.66;62.45
51245;BME280;37840;47.562;18.738;2023-10-19T00:49:04;99157.88;;;9.61;62.23
51245;BME280;37840;47.562;18.738;2023-10-19T00:51:44;99149.56;;;9.65;62.76
51245;BME280;37840;47.562;18.738;2023-10-19T00:54:32;99138.06;;;9.65;62.95
51245;BME280;37840;47.562;18.738;2023-10-19T00:57:02;99140.13;;;9.61;63.01
51245;BME280;37840;47.562;18.738;2023-10-19T00:59:39;99145.44;;;9.61;63.55
51245;BME280;37840;47.562;18.738;2023-10-19T01:02:16;99134.47;;;9.66;63.45
51245;BME280;37840;47.562;18.738;2023-10-19T01:04:53;99134.56;;;9.64;63.34
51245;BME280;37840;47.562;18.738;2023-10-19T01:07:22;99134.22;;;9.69;64.08
51245;BME280;37840;47.562;18.738;2023-10-19T01:09:51;99134.38;;;9.78;64.62
51245;BME280;37840;47.562;18.738;2023-10-19T01:12:19;99130.00;;;9.77;64.98
51245;BME280;37840;47.562;18.738;2023-10-19T01:15:21;99124.47;;;9.80;65.14
51245;BME280;37840;47.562;18.738;2023-10-19T01:17:54;99137.75;;;9.80;65.37
51245;BME280;37840;47.562;18.738;2023-10-19T01:20:24;99131.44;;;9.82;66.00
51245;BME280;37840;47.562;18.738;2023-10-19T01:23:01;99124.00;;;9.87;66.68
51245;BME280;37840;47.562;18.738;2023-10-19T01:25:47;99134.00;;;9.83;67.42
51245;BME280;37840;47.562;18.738;2023-10-19T01:31:16;99118.16;;;9.59;70.29
51245;BME280;37840;47.562;18.738;2023-10-19T01:34:02;99119.59;;;9.52;71.01
51245;BME280;37840;47.562;18.738;2023-10-19T01:36:31;99115.56;;;9.35;72.49
51245;BME280;37840;47.562;18.738;2023-10-19T01:39:07;99104.25;;;9.33;73.54
51245;BME280;37840;47.562;18.738;2023-10-19T01:41:37;99098.81;;;9.34;74.43
51245;BME280;37840;47.562;18.738;2023-10-19T01:44:05;99105.94;;;9.34;75.10
51245;BME280;37840;47.562;18.738;2023-10-19T01:46:34;99097.69;;;9.26;77.37
51245;BME280;37840;47.562;18.738;2023-10-19T01:49:01;99094.56;;;9.21;79.01
51245;BME280;37840;47.562;18.738;2023-10-19T01:51:30;99085.00;;;9.07;80.91
51245;BME280;37840;47.562;18.738;2023-10-19T01:53:59;99087.88;;;9.04;82.60
51245;BME280;37840;47.562;18.738;2023-10-19T01:56:26;99081.97;;;9.11;83.28
51245;BME280;37840;47.562;18.738;2023-10-19T01:58:53;99078.84;;;9.06;84.21
51245;BME280;37840;47.562;18.738;2023-10-19T02:01:20;99087.03;;;9.03;84.75
51245;BME280;37840;47.562;18.738;2023-10-19T02:04:05;99084.16;;;9.06;85.39
51245;BME280;37840;47.562;18.738;2023-10-19T02:06:33;99092.34;;;9.03;86.44
51245;BME280;37840;47.562;18.738;2023-10-19T02:09:04;99081.94;;;9.00;87.44
51245;BME280;37840;47.562;18.738;2023-10-19T02:11:48;99068.41;;;8.92;88.34
51245;BME280;37840;47.562;18.738;2023-10-19T02:14:15;99061.91;;;8.85;88.86
51245;BME280;37840;47.562;18.738;2023-10-19T02:16:51;99057.91;;;8.90;88.66
51245;BME280;37840;47.562;18.738;2023-10-19T02:19:19;99059.12;;;8.86;89.31
51245;BME280;37840;47.562;18.738;2023-10-19T02:21:53;99067.19;;;8.85;90.26
51245;BME280;37840;47.562;18.738;2023-10-19T02:24:19;99059.59;;;8.80;91.64
51245;BME280;37840;47.562;18.738;2023-10-19T02:26:52;99057.53;;;8.84;92.51
51245;BME280;37840;47.562;18.738;2023-10-19T02:29:19;99056.66;;;8.72;94.29
51245;BME280;37840;47.562;18.738;2023-10-19T02:31:45;99050.75;;;8.68;95.58
51245;BME280;37840;47.562;18.738;2023-10-19T02:34:13;99046.41;;;8.67;96.04
51245;BME280;37840;47.562;18.738;2023-10-19T02:36:43;99045.78;;;8.64;97.35
51245;BME280;37840;47.562;18.738;2023-10-19T02:39:12;99041.31;;;8.64;98.23
51245;BME280;37840;47.562;18.738;2023-10-19T02:41:42;99043.03;;;8.65;99.15
51245;BME280;37840;47.562;18.738;2023-10-19T02:46:42;99028.91;;;8.65;100.00
51245;BME280;37840;47.562;18.738;2023-10-19T02:49:09;99019.38;;;8.62;100.00
51245;BME280;37840;47.562;18.738;2023-10-19T02:51:41;99018.19;;;8.66;100.00
51245;BME280;37840;47.562;18.738;2023-10-19T02:54:14;99004.50;;;8.72;100.00
51245;BME280;37840;47.562;18.738;2023-10-19T02:56:52;99009.91;;;8.71;100.00
51245;BME280;37840;47.562;18.738;2023-10-19T02:59:20;98999.31;;;8.71;100.00
51245;BME280;37840;47.562;18.738;2023-10-19T03:01:54;98993.06;;;8.72;100.00
51245;BME280;37840;47.562;18.738;2023-10-19T03:04:27;98990.28;;;8.73;100.00
51245;BME280;37840;47.562;18.738;2023-10-19T03:06:56;98992.44;;;8.80;100.00
51245;BME280;37840;47.562;18.738;2023-10-19T03:09:22;98995.47;;;8.75;100.00
51245;BME280;37840;47.562;18.738;2023-10-19T03:11:54;98990.03;;;8.76;100.00
51245;BME280;37840;47.562;18.738;2023-10-19T03:14:28;98980.28;;;8.77;100.00
51245;BME280;37840;47.562;18.738;2023-10-19T03:16:54;98976.56;;;8.80;100.00
51245;BME280;37840;47.562;18.738;2023-10-19T03:19:21;98967.28;;;8.74;100.00
51245;BME280;37840;47.562;18.738;2023-10-19T03:21:47;98960.31;;;8.84;100.00
51245;BME280;37840;47.562;18.738;2023-10-19T03:24:18;98952.13;;;8.87;100.00
51245;BME280;37840;47.562;18.738;2023-10-19T03:27:08;98952.59;;;8.81;100.00
51245;BME280;37840;47.562;18.738;2023-10-19T03:29:51;98955.34;;;8.80;100.00
51245;BME280;37840;47.562;18.738;2023-10-19T03:32:26;98946.34;;;8.82;100.00
51245;BME280;37840;47.562;18.738;2023-10-19T03:34:53;98938.84;;;8.87;100.00
51245;BME280;37840;47.562;18.738;2023-10-19T03:37:23;98938.50;;;8.92;100.00
51245;BME280;37840;47.562;18.738;2023-10-19T03:39:50;98934.53;;;8.97;100.00
51245;BME280;37840;47.562;18.738;2023-10-19T03:42:17;98932.00;;;8.96;100.00
51245;BME280;37840;47.562;18.738;2023-10-19T03:44:43;98940.69;;;8.98;100.00
51245;BME280;37840;47.562;18.738;2023-10-19T03:47:16;98935.25;;;9.00;100.00
51245;BME280;37840;47.562;18.738;2023-10-19T03:49:46;98933.81;;;9.07;100.00
51245;BME280;37840;47.562;18.738;2023-10-19T03:52:13;98936.84;;;9.13;100.00
51245;BME280;37840;47.562;18.738;2023-10-19T03:54:40;98934.06;;;9.15;100.00
51245;BME280;37840;47.562;18.738;2023-10-19T03:57:07;98933.22;;;9.14;100.00
51245;BME280;37840;47.562;18.738;2023-10-19T03:59:41;98921.63;;;9.15;100.00
51245;BME280;37840;47.562;18.738;2023-10-19T04:02:10;98922.25;;;9.08;100.00
51245;BME280;37840;47.562;18.738;2023-10-19T04:04:40;98912.50;;;9.08;100.00
51245;BME280;37840;47.562;18.738;2023-10-19T04:07:12;98908.84;;;9.09;100.00
51245;BME280;37840;47.562;18.738;2023-10-19T04:09:48;98906.09;;;9.11;100.00
51245;BME280;37840;47.562;18.738;2023-10-19T04:12:38;98904.63;;;9.07;100.00
51245;BME280;37840;47.562;18.738;2023-10-19T04:15:08;98897.78;;;9.04;100.00
51245;BME280;37840;47.562;18.738;2023-10-19T04:17:45;98895.59;;;9.09;100.00
51245;BME280;37840;47.562;18.738;2023-10-19T04:20:12;98892.00;;;9.10;100.00
51245;BME280;37840;47.562;18.738;2023-10-19T04:22:45;98882.84;;;9.14;100.00
51245;BME280;37840;47.562;18.738;2023-10-19T04:25:12;98881.50;;;9.09;100.00
51245;BME280;37840;47.562;18.738;2023-10-19T04:27:42;98870.53;;;9.13;100.00
51245;BME280;37840;47.562;18.738;2023-10-19T04:30:09;98868.84;;;9.12;100.00
51245;BME280;37840;47.562;18.738;2023-10-19T04:32:45;98862.09;;;9.19;100.00
51245;BME280;37840;47.562;18.738;2023-10-19T04:35:12;98859.69;;;9.16;100.00
51245;BME280;37840;47.562;18.738;2023-10-19T04:37:48;98852.81;;;9.14;100.00
51245;BME280;37840;47.562;18.738;2023-10-19T04:40:16;98848.47;;;9.13;100.00
51245;BME280;37840;47.562;18.738;2023-10-19T04:42:42;98849.53;;;9.22;100.00
51245;BME280;37840;47.562;18.738;2023-10-19T04:45:08;98848.81;;;9.19;100.00
51245;BME280;37840;47.562;18.738;2023-10-19T04:47:37;98848.59;;;9.23;100.00
51245;BME280;37840;47.562;18.738;2023-10-19T04:50:04;98846.50;;;9.26;100.00
51245;BME280;37840;47.562;18.738;2023-10-19T04:52:32;98841.34;;;9.25;100.00
51245;BME280;37840;47.562;18.738;2023-10-19T04:54:58;98844.47;;;9.30;100.00
51245;BME280;37840;47.562;18.738;2023-10-19T04:57:25;98844.34;;;9.31;100.00
51245;BME280;37840;47.562;18.738;2023-10-19T04:59:51;98837.94;;;9.34;100.00
51245;BME280;37840;47.562;18.738;2023-10-19T05:02:17;98844.69;;;9.38;100.00
51245;BME280;37840;47.562;18.738;2023-10-19T05:04:44;98840.94;;;9.41;100.00
51245;BME280;37840;47.562;18.738;2023-10-19T05:07:11;98844.25;;;9.33;100.00
51245;BME280;37840;47.562;18.738;2023-10-19T05:09:44;98839.03;;;9.31;100.00
51245;BME280;37840;47.562;18.738;2023-10-19T05:12:10;98844.59;;;9.39;100.00
51245;BME280;37840;47.562;18.738;2023-10-19T05:14:41;98844.59;;;9.39;100.00
51245;BME280;37840;47.562;18.738;2023-10-19T05:17:08;98847.69;;;9.45;100.00
51245;BME280;37840;47.562;18.738;2023-10-19T05:19:39;98843.22;;;9.45;100.00
51245;BME280;37840;47.562;18.738;2023-10-19T05:22:06;98849.25;;;9.47;100.00
51245;BME280;37840;47.562;18.738;2023-10-19T05:24:33;98849.25;;;9.47;100.00
51245;BME280;37840;47.562;18.738;2023-10-19T05:26:59;98841.53;;;9.55;100.00
51245;BME280;37840;47.562;18.738;2023-10-19T05:29:25;98850.31;;;9.56;100.00
51245;BME280;37840;47.562;18.738;2023-10-19T05:31:51;98843.34;;;9.55;100.00
51245;BME280;37840;47.562;18.738;2023-10-19T05:34:24;98846.00;;;9.55;100.00
51245;BME280;37840;47.562;18.738;2023-10-19T05:36:52;98840.91;;;9.52;100.00
51245;BME280;37840;47.562;18.738;2023-10-19T05:39:19;98838.47;;;9.60;100.00
51245;BME280;37840;47.562;18.738;2023-10-19T05:41:46;98824.38;;;9.59;100.00
51245;BME280;37840;47.562;18.738;2023-10-19T05:44:12;98825.09;;;9.62;100.00
51245;BME280;37840;47.562;18.738;2023-10-19T05:46:38;98828.34;;;9.65;100.00
51245;BME280;37840;47.562;18.738;2023-10-19T05:49:06;98833.41;;;9.68;100.00
51245;BME280;37840;47.562;18.738;2023-10-19T05:51:32;98832.19;;;9.72;100.00
51245;BME280;37840;47.562;18.738;2023-10-19T05:53:58;98828.81;;;9.70;100.00
51245;BME280;37840;47.562;18.738;2023-10-19T05:56:31;98834.84;;;9.72;100.00
51245;BME280;37840;47.562;18.738;2023-10-19T05:59:00;98826.63;;;9.75;100.00
51245;BME280;37840;47.562;18.738;2023-10-19T06:01:26;98828.31;;;9.76;100.00
51245;BME280;37840;47.562;18.738;2023-10-19T06:03:52;98829.41;;;9.74;100.00
51245;BME280;37840;47.562;18.738;2023-10-19T06:06:22;98831.78;;;9.77;100.00
51245;BME280;37840;47.562;18.738;2023-10-19T06:08:48;98826.38;;;9.78;100.00
51245;BME280;37840;47.562;18.738;2023-10-19T06:11:15;98832.12;;;9.84;99.96
51245;BME280;37840;47.562;18.738;2023-10-19T06:13:41;98821.50;;;9.84;99.63
51245;BME280;37840;47.562;18.738;2023-10-19T06:16:07;98820.44;;;9.86;99.40
51245;BME280;37840;47.562;18.738;2023-10-19T06:18:33;98816.56;;;9.90;99.38
51245;BME280;37840;47.562;18.738;2023-10-19T06:20:59;98818.34;;;9.90;99.65
51245;BME280;37840;47.562;18.738;2023-10-19T06:23:24;98810.25;;;9.91;98.97
51245;BME280;37840;47.562;18.738;2023-10-19T06:25:50;98805.41;;;9.96;97.82
51245;BME280;37840;47.562;18.738;2023-10-19T06:28:17;98808.84;;;10.08;96.19
51245;BME280;37840;47.562;18.738;2023-10-19T06:30:43;98804.25;;;10.10;96.88
51245;BME280;37840;47.562;18.738;2023-10-19T06:33:09;98801.47;;;10.12;96.74
51245;BME280;37840;47.562;18.738;2023-10-19T06:35:35;98807.41;;;10.04;96.88
51245;BME280;37840;47.562;18.738;2023-10-19T06:38:03;98806.81;;;10.00;96.91
51245;BME280;37840;47.562;18.738;2023-10-19T06:40:34;98812.63;;;10.06;96.26
51245;BME280;37840;47.562;18.738;2023-10-19T06:43:02;98807.03;;;10.09;95.73
51245;BME280;37840;47.562;18.738;2023-10-19T06:45:28;98806.28;;;10.18;96.18
51245;BME280;37840;47.562;18.738;2023-10-19T06:47:58;98794.66;;;10.19;94.90
51245;BME280;37840;47.562;18.738;2023-10-19T06:50:26;98786.81;;;10.17;95.45
51245;BME280;37840;47.562;18.738;2023-10-19T06:52:52;98783.91;;;10.20;95.35
51245;BME280;37840;47.562;18.738;2023-10-19T06:55:20;98790.06;;;10.21;94.90
51245;BME280;37840;47.562;18.738;2023-10-19T06:57:53;98787.28;;;10.23;95.01
51245;BME280;37840;47.562;18.738;2023-10-19T07:00:22;98789.22;;;10.20;94.94
51245;BME280;37840;47.562;18.738;2023-10-19T07:02:50;98790.66;;;10.25;94.67
51245;BME280;37840;47.562;18.738;2023-10-19T07:05:17;98780.97;;;10.24;94.72
51245;BME280;37840;47.562;18.738;2023-10-19T07:07:45;98779.75;;;10.28;94.60
51245;BME280;37840;47.562;18.738;2023-10-19T07:10:12;98781.09;;;10.33;94.44
51245;BME280;37840;47.562;18.738;2023-10-19T07:12:41;98780.72;;;10.27;94.26
51245;BME280;37840;47.562;18.738;2023-10-19T07:15:08;98773.59;;;10.27;94.24
51245;BME280;37840;47.562;18.738;2023-10-19T07:17:37;98780.84;;;10.25;94.15
51245;BME280;37840;47.562;18.738;2023-10-19T07:20:08;98779.03;;;10.26;94.92
51245;BME280;37840;47.562;18.738;2023-10-19T07:22:43;98772.63;;;10.28;94.85
51245;BME280;37840;47.562;18.738;2023-10-19T07:25:10;98777.72;;;10.31;94.50
51245;BME280;37840;47.562;18.738;2023-10-19T07:27:37;98771.69;;;10.29;94.65
51245;BME280;37840;47.562;18.738;2023-10-19T07:30:03;98776.25;;;10.27;94.83
51245;BME280;37840;47.562;18.738;2023-10-19T07:32:35;98768.41;;;10.26;94.98
51245;BME280;37840;47.562;18.738;2023-10-19T07:35:01;98765.38;;;10.30;95.20
51245;BME280;37840;47.562;18.738;2023-10-19T07:37:27;98759.81;;;10.33;95.44
51245;BME280;37840;47.562;18.738;2023-10-19T07:39:54;98754.38;;;10.35;95.45
51245;BME280;37840;47.562;18.738;2023-10-19T07:42:23;98743.37;;;10.28;95.82
51245;BME280;37840;47.562;18.738;2023-10-19T07:44:50;98756.34;;;10.21;96.73
51245;BME280;37840;47.562;18.738;2023-10-19T07:47:16;98759.22;;;10.30;96.85
51245;BME280;37840;47.562;18.738;2023-10-19T07:49:42;98741.47;;;10.30;97.04
51245;BME280;37840;47.562;18.738;2023-10-19T07:52:08;98742.19;;;10.32;96.89
51245;BME280;37840;47.562;18.738;2023-10-19T07:54:37;98733.44;;;10.42;97.00
51245;BME280;37840;47.562;18.738;2023-10-19T07:57:04;98732.75;;;10.49;97.48
51245;BME280;37840;47.562;18.738;2023-10-19T07:59:33;98731.25;;;10.56;97.53
51245;BME280;37840;47.562;18.738;2023-10-19T08:02:03;98723.31;;;10.66;97.56
51245;BME280;37840;47.562;18.738;2023-10-19T08:04:30;98714.78;;;10.72;97.67
51245;BME280;37840;47.562;18.738;2023-10-19T08:06:59;98721.13;;;10.81;97.14
51245;BME280;37840;47.562;18.738;2023-10-19T08:09:25;98720.03;;;10.93;96.63
51245;BME280;37840;47.562;18.738;2023-10-19T08:11:57;98726.19;;;10.94;97.15
51245;BME280;37840;47.562;18.738;2023-10-19T08:14:25;98716.41;;;11.04;97.08
51245;BME280;37840;47.562;18.738;2023-10-19T08:16:52;98713.63;;;11.25;96.22
51245;BME280;37840;47.562;18.738;2023-10-19T08:19:18;98717.25;;;11.24;94.53
51245;BME280;37840;47.562;18.738;2023-10-19T08:21:45;98723.59;;;11.33;94.93
51245;BME280;37840;47.562;18.738;2023-10-19T08:24:11;98717.44;;;11.42;92.99
51245;BME280;37840;47.562;18.738;2023-10-19T08:26:44;98713.78;;;11.53;94.37
51245;BME280;37840;47.562;18.738;2023-10-19T08:29:13;98706.50;;;11.65;92.60
51245;BME280;37840;47.562;18.738;2023-10-19T08:31:40;98701.75;;;11.58;92.37
51245;BME280;37840;47.562;18.738;2023-10-19T08:34:07;98703.28;;;11.61;93.03
51245;BME280;37840;47.562;18.738;2023-10-19T08:36:35;98694.72;;;11.57;91.85
51245;BME280;37840;47.562;18.738;2023-10-19T08:39:07;98688.84;;;11.54;91.70
51245;BME280;37840;47.562;18.738;2023-10-19T08:41:36;98676.94;;;11.68;92.49
51245;BME280;37840;47.562;18.738;2023-10-19T08:44:06;98693.88;;;11.86;90.39
51245;BME280;37840;47.562;18.738;2023-10-19T08:46:42;98688.13;;;11.91;90.05
51245;BME280;37840;47.562;18.738;2023-10-19T08:49:14;98682.37;;;12.05;89.59
51245;BME280;37840;47.562;18.738;2023-10-19T08:51:45;98680.47;;;12.25;89.00
51245;BME280;37840;47.562;18.738;2023-10-19T08:54:12;98663.78;;;12.51;88.03
51245;BME280;37840;47.562;18.738;2023-10-19T08:56:40;98675.47;;;12.77;87.56
51245;BME280;37840;47.562;18.738;2023-10-19T08:59:07;98678.12;;;12.77;86.74
51245;BME280;37840;47.562;18.738;2023-10-19T09:01:33;98671.16;;;12.94;85.13
51245;BME280;37840;47.562;18.738;2023-10-19T09:04:03;98668.31;;;12.96;85.16
51245;BME280;37840;47.562;18.738;2023-10-19T09:06:35;98670.41;;;13.20;83.51
51245;BME280;37840;47.562;18.738;2023-10-19T09:09:08;98670.06;;;13.33;82.51
51245;BME280;37840;47.562;18.738;2023-10-19T09:11:35;98666.47;;;13.42;81.37
51245;BME280;37840;47.562;18.738;2023-10-19T09:14:01;98667.69;;;13.48;81.29
51245;BME280;37840;47.562;18.738;2023-10-19T09:16:29;98675.09;;;13.54;81.39
51245;BME280;37840;47.562;18.738;2023-10-19T09:18:56;98672.09;;;13.57;82.81
51245;BME280;37840;47.562;18.738;2023-10-19T09:21:22;98688.47;;;13.62;80.11
51245;BME280;37840;47.562;18.738;2023-10-19T09:23:53;98685.16;;;13.42;79.93
51245;BME280;37840;47.562;18.738;2023-10-19T09:26:21;98671.47;;;13.27;81.98
51245;BME280;37840;47.562;18.738;2023-10-19T09:28:49;98671.25;;;13.20;83.01
51245;BME280;37840;47.562;18.738;2023-10-19T09:31:16;98663.41;;;13.37;83.14
51245;BME280;37840;47.562;18.738;2023-10-19T09:33:43;98666.53;;;13.50;83.35
51245;BME280;37840;47.562;18.738;2023-10-19T09:36:11;98653.84;;;13.52;81.83
51245;BME280;37840;47.562;18.738;2023-10-19T09:38:45;98655.91;;;13.58;82.56
51245;BME280;37840;47.562;18.738;2023-10-19T09:41:17;98657.28;;;13.62;83.10
51245;BME280;37840;47.562;18.738;2023-10-19T09:43:48;98647.09;;;13.66;81.74
51245;BME280;37840;47.562;18.738;2023-10-19T09:46:27;98650.84;;;13.73;84.16
51245;BME280;37840;47.562;18.738;2023-10-19T09:48:55;98637.59;;;13.90;81.01
51245;BME280;37840;47.562;18.738;2023-10-19T09:51:22;98637.81;;;13.96;81.10
51245;BME280;37840;47.562;18.738;2023-10-19T09:53:59;98637.44;;;13.91;81.09
51245;BME280;37840;47.562;18.738;2023-10-19T09:56:41;98634.91;;;13.90;80.87
51245;BME280;37840;47.562;18.738;2023-10-19T09:59:17;98633.47;;;13.69;80.99
51245;BME280;37840;47.562;18.738;2023-10-19T10:02:04;98622.81;;;13.77;83.01
51245;BME280;37840;47.562;18.738;2023-10-19T10:04:32;98618.56;;;13.93;81.12
51245;BME280;37840;47.562;18.738;2023-10-19T10:06:59;98618.28;;;14.04;80.93
51245;BME280;37840;47.562;18.738;2023-10-19T10:09:26;98603.81;;;14.15;80.72
51245;BME280;37840;47.562;18.738;2023-10-19T10:11:52;98608.03;;;14.25;80.46
51245;BME280;37840;47.562;18.738;2023-10-19T10:14:23;98606.87;;;14.20;82.23
51245;BME280;37840;47.562;18.738;2023-10-19T10:17:04;98617.22;;;14.23;79.95
51245;BME280;37840;47.562;18.738;2023-10-19T10:19:35;98600.13;;;14.07;81.40
51245;BME280;37840;47.562;18.738;2023-10-19T10:22:09;98588.31;;;14.18;82.58
51245;BME280;37840;47.562;18.738;2023-10-19T10:24:41;98582.50;;;14.31;80.95
51245;BME280;37840;47.562;18.738;2023-10-19T10:27:07;98578.66;;;14.34;81.70
51245;BME280;37840;47.562;18.738;2023-10-19T10:29:33;98579.56;;;14.51;81.12
51245;BME280;37840;47.562;18.738;2023-10-19T10:31:59;98586.31;;;14.63;82.65
51245;BME280;37840;47.562;18.738;2023-10-19T10:37:05;98564.94;;;14.71;82.29
51245;BME280;37840;47.562;18.738;2023-10-19T10:39:34;98567.59;;;14.71;82.23
51245;BME280;37840;47.562;18.738;2023-10-19T10:42:05;98552.91;;;14.75;82.82
51245;BME280;37840;47.562;18.738;2023-10-19T10:44:38;98544.53;;;14.86;82.90
51245;BME280;37840;47.562;18.738;2023-10-19T10:47:25;98535.19;;;14.91;82.75
51245;BME280;37840;47.562;18.738;2023-10-19T10:49:56;98518.28;;;14.90;83.19
51245;BME280;37840;47.562;18.738;2023-10-19T10:52:33;98525.31;;;14.99;80.57
51245;BME280;37840;47.562;18.738;2023-10-19T10:55:13;98518.62;;;15.12;80.77
51245;BME280;37840;47.562;18.738;2023-10-19T10:57:41;98518.62;;;15.28;81.24
51245;BME280;37840;47.562;18.738;2023-10-19T11:00:17;98507.72;;;15.21;81.51
51245;BME280;37840;47.562;18.738;2023-10-19T11:02:59;98499.69;;;15.21;78.93
51245;BME280;37840;47.562;18.738;2023-10-19T11:05:26;98497.88;;;15.14;79.93
51245;BME280;37840;47.562;18.738;2023-10-19T11:08:09;98488.97;;;15.21;80.29
51245;BME280;37840;47.562;18.738;2023-10-19T11:10:40;98487.00;;;15.15;81.03
51245;BME280;37840;47.562;18.738;2023-10-19T11:13:10;98498.53;;;15.16;82.84
51245;BME280;37840;47.562;18.738;2023-10-19T11:15:37;98485.97;;;15.16;82.98
51245;BME280;37840;47.562;18.738;2023-10-19T11:18:05;98480.97;;;15.13;83.80
51245;BME280;37840;47.562;18.738;2023-10-19T11:20:35;98488.97;;;15.21;83.59
51245;BME280;37840;47.562;18.738;2023-10-19T11:23:01;98482.47;;;15.24;83.61
51245;BME280;37840;47.562;18.738;2023-10-19T11:25:29;98480.09;;;15.21;81.71
51245;BME280;37840;47.562;18.738;2023-10-19T11:27:57;98475.09;;;15.26;82.97
51245;BME280;37840;47.562;18.738;2023-10-19T11:30:25;98471.41;;;15.27;82.23
51245;BME280;37840;47.562;18.738;2023-10-19T11:32:52;98461.84;;;15.33;82.69
51245;BME280;37840;47.562;18.738;2023-10-19T11:35:19;98453.28;;;15.45;81.58
51245;BME280;37840;47.562;18.738;2023-10-19T11:37:51;98455.94;;;15.54;82.45
51245;BME280;37840;47.562;18.738;2023-10-19T11:40:21;98452.53;;;15.68;82.08
51245;BME280;37840;47.562;18.738;2023-10-19T11:42:48;98451.34;;;15.79;80.52
51245;BME280;37840;47.562;18.738;2023-10-19T11:45:14;98448.97;;;15.84;80.04
51245;BME280;37840;47.562;18.738;2023-10-19T11:47:45;98440.22;;;15.98;79.66
51245;BME280;37840;47.562;18.738;2023-10-19T11:50:12;98445.69;;;16.05;78.81
51245;BME280;37840;47.562;18.738;2023-10-19T11:52:43;98453.50;;;16.15;80.01
51245;BME280;37840;47.562;18.738;2023-10-19T11:55:09;98441.75;;;16.24;78.32
51245;BME280;37840;47.562;18.738;2023-10-19T11:57:35;98439.00;;;16.32;80.55
51245;BME280;37840;47.562;18.738;2023-10-19T12:00:04;98435.28;;;16.33;78.02
51245;BME280;37840;47.562;18.738;2023-10-19T12:02:45;98426.22;;;16.34;79.70
51245;BME280;37840;47.562;18.738;2023-10-19T12:05:11;98427.78;;;16.51;79.57
51245;BME280;37840;47.562;18.738;2023-10-19T12:07:37;98410.31;;;16.56;76.99
51245;BME280;37840;47.562;18.738;2023-10-19T12:10:07;98419.97;;;16.65;77.24
51245;BME280;37840;47.562;18.738;2023-10-19T12:12:34;98412.62;;;16.59;77.37
51245;BME280;37840;47.562;18.738;2023-10-19T12:15:00;98411.38;;;16.46;78.10
51245;BME280;37840;47.562;18.738;2023-10-19T12:17:28;98393.47;;;16.47;78.24
51245;BME280;37840;47.562;18.738;2023-10-19T12:19:56;98401.63;;;16.54;77.67
51245;BME280;37840;47.562;18.738;2023-10-19T12:22:22;98399.38;;;16.57;77.43
51245;BME280;37840;47.562;18.738;2023-10-19T12:24:50;98392.84;;;16.60;77.02
51245;BME280;37840;47.562;18.738;2023-10-19T12:27:20;98388.47;;;16.59;78.22
51245;BME280;37840;47.562;18.738;2023-10-19T12:29:46;98385.31;;;16.55;77.30
51245;BME280;37840;47.562;18.738;2023-10-19T12:32:12;98387.00;;;16.56;76.83
51245;BME280;37840;47.562;18.738;2023-10-19T12:34:41;98391.00;;;16.60;76.86
51245;BME280;37840;47.562;18.738;2023-10-19T12:37:07;98393.81;;;16.44;75.55
51245;BME280;37840;47.562;18.738;2023-10-19T12:39:35;98381.59;;;16.41;75.49
51245;BME280;37840;47.562;18.738;2023-10-19T12:42:04;98380.81;;;16.33;76.60
51245;BME280;37840;47.562;18.738;2023-10-19T12:44:30;98380.88;;;16.24;76.75
51245;BME280;37840;47.562;18.738;2023-10-19T12:46:57;98384.28;;;16.18;76.80
51245;BME280;37840;47.562;18.738;2023-10-19T12:49:24;98369.72;;;16.13;77.81
51245;BME280;37840;47.562;18.738;2023-10-19T12:51:52;98369.72;;;16.13;76.42
51245;BME280;37840;47.562;18.738;2023-10-19T12:54:18;98366.56;;;16.09;76.44
51245;BME280;37840;47.562;18.738;2023-10-19T12:56:44;98364.47;;;15.96;77.63
51245;BME280;37840;47.562;18.738;2023-10-19T12:59:10;98370.19;;;15.93;78.05
51245;BME280;37840;47.562;18.738;2023-10-19T13:01:36;98360.44;;;16.00;77.83
51245;BME280;37840;47.562;18.738;2023-10-19T13:04:03;98360.88;;;16.04;77.44
51245;BME280;37840;47.562;18.738;2023-10-19T13:06:39;98347.37;;;15.97;77.23
51245;BME280;37840;47.562;18.738;2023-10-19T13:09:05;98351.41;;;15.93;77.69
51245;BME280;37840;47.562;18.738;2023-10-19T13:11:34;98343.38;;;15.93;77.85
51245;BME280;37840;47.562;18.738;2023-10-19T13:14:01;98343.53;;;15.92;78.00